SAS2648 EDDH-ESSA
Flight info
| Callsign | SAS2648 |
|---|---|
| Flight time | 1h 17m |
| Altitude | 37000 |
| Route | LUGEG3G/33 LUGEG P605 MEGAR DCT KUBIS DCT MIKNA N851 PELUP Z226 NILUG |
| Aircraft | A320/M-SDE3FGHIJ1RWXYZ/ALB1 |
Departure
| Time | 2026-04-26 18:04 |
|---|---|
| Airport | Hamburg Helmut Schmidt Airport (EDDH) |
Arrival
| Time | 2026-04-26 19:21 |
|---|---|
| Airport | Stockholm-Arlanda Airport (ESSA) |
| Time | Latitude | Longitude | Altitude | Speed | Heading |
|---|---|---|---|---|---|
| 2026-04-26 17:26 | 53.63075 | 10.00375 | 51 ft | 0 kts | 99° |
| 2026-04-26 17:37 | 53.63075 | 10.00374 | 51 ft | 0 kts | 99° |
| 2026-04-26 17:53 | 53.63076 | 10.00366 | 51 ft | 4 kts | 101° |
| 2026-04-26 17:53 | 53.63084 | 10.00324 | 45 ft | 4 kts | 130° |
| 2026-04-26 17:53 | 53.63092 | 10.00310 | 48 ft | 0 kts | 159° |
| 2026-04-26 17:54 | 53.63084 | 10.00319 | 45 ft | 1 kts | 141° |
| 2026-04-26 17:54 | 53.63083 | 10.00325 | 45 ft | 0 kts | 110° |
| 2026-04-26 17:54 | 53.63075 | 10.00374 | 51 ft | 0 kts | 99° |
| 2026-04-26 17:55 | 53.63081 | 10.00313 | 47 ft | 8 kts | 105° |
| 2026-04-26 17:55 | 53.63110 | 10.00261 | 49 ft | 0 kts | 171° |
| 2026-04-26 17:58 | 53.63006 | 10.00116 | 51 ft | 13 kts | 216° |
| 2026-04-26 17:59 | 53.62900 | 9.99925 | 50 ft | 10 kts | 244° |
| 2026-04-26 17:59 | 53.62897 | 9.99915 | 50 ft | 0 kts | 244° |
| 2026-04-26 18:01 | 53.62895 | 9.99909 | 48 ft | 2 kts | 244° |
| 2026-04-26 18:01 | 53.62879 | 9.99855 | 50 ft | 10 kts | 244° |
| 2026-04-26 18:01 | 53.62866 | 9.99746 | 49 ft | 8 kts | 308° |
| 2026-04-26 18:01 | 53.62880 | 9.99732 | 49 ft | 0 kts | 332° |
| 2026-04-26 18:03 | 53.62906 | 9.99708 | 50 ft | 22 kts | 332° |
| 2026-04-26 18:03 | 53.63268 | 9.99395 | 51 ft | 91 kts | 333° |
| 2026-04-26 18:04 | 53.63999 | 9.98766 | 50 ft | 142 kts | 333° |
| 2026-04-26 18:04 | 53.64969 | 9.97940 | 360 ft | 159 kts | 333° |
| 2026-04-26 18:04 | 53.65955 | 9.97181 | 1202 ft | 151 kts | 333° |
| 2026-04-26 18:05 | 53.67723 | 9.95643 | 2481 ft | 135 kts | 327° |
| 2026-04-26 18:05 | 53.68571 | 9.94933 | 2871 ft | 144 kts | 340° |
| 2026-04-26 18:05 | 53.69641 | 9.94645 | 3069 ft | 169 kts | 359° |
| 2026-04-26 18:05 | 53.70897 | 9.94663 | 3315 ft | 192 kts | 358° |
| 2026-04-26 18:06 | 53.72301 | 9.94905 | 3553 ft | 217 kts | 17° |
| 2026-04-26 18:06 | 53.73663 | 9.96215 | 4022 ft | 236 kts | 42° |
| 2026-04-26 18:06 | 53.74666 | 9.98576 | 4432 ft | 262 kts | 63° |
| 2026-04-26 18:06 | 53.75487 | 10.01414 | 5139 ft | 273 kts | 63° |
| 2026-04-26 18:07 | 53.76311 | 10.04303 | 6017 ft | 277 kts | 62° |
| 2026-04-26 18:07 | 53.77154 | 10.07266 | 6925 ft | 281 kts | 62° |
| 2026-04-26 18:07 | 53.78004 | 10.10247 | 7810 ft | 283 kts | 61° |
| 2026-04-26 18:07 | 53.78294 | 10.11262 | 8108 ft | 284 kts | 61° |
| 2026-04-26 18:08 | 53.79731 | 10.16291 | 9554 ft | 288 kts | 60° |
| 2026-04-26 18:08 | 53.80615 | 10.19376 | 10126 ft | 293 kts | 60° |
| 2026-04-26 18:08 | 53.81505 | 10.22476 | 10278 ft | 298 kts | 59° |
| 2026-04-26 18:08 | 53.82459 | 10.25771 | 10298 ft | 318 kts | 60° |
| 2026-04-26 18:09 | 53.83436 | 10.29173 | 10299 ft | 321 kts | 60° |
| 2026-04-26 18:09 | 53.84412 | 10.32602 | 10301 ft | 324 kts | 60° |
| 2026-04-26 18:09 | 53.85058 | 10.34880 | 10299 ft | 323 kts | 60° |
| 2026-04-26 18:09 | 53.86363 | 10.39485 | 10302 ft | 326 kts | 60° |
| 2026-04-26 18:10 | 53.87010 | 10.41760 | 10298 ft | 324 kts | 60° |
| 2026-04-26 18:10 | 53.87989 | 10.45210 | 10300 ft | 325 kts | 60° |
| 2026-04-26 18:10 | 53.88967 | 10.48665 | 10301 ft | 326 kts | 60° |
| 2026-04-26 18:10 | 53.89948 | 10.52122 | 10330 ft | 329 kts | 60° |
| 2026-04-26 18:11 | 53.90952 | 10.55660 | 10953 ft | 333 kts | 60° |
| 2026-04-26 18:11 | 53.91956 | 10.59212 | 11693 ft | 336 kts | 60° |
| 2026-04-26 18:11 | 53.92971 | 10.62812 | 12399 ft | 340 kts | 60° |
| 2026-04-26 18:11 | 53.94090 | 10.66362 | 13076 ft | 341 kts | 52° |
| 2026-04-26 18:12 | 53.95570 | 10.69504 | 13786 ft | 341 kts | 42° |
| 2026-04-26 18:12 | 53.97204 | 10.72460 | 14446 ft | 345 kts | 42° |
| 2026-04-26 18:12 | 53.98857 | 10.75450 | 15070 ft | 349 kts | 42° |
| 2026-04-26 18:12 | 54.00523 | 10.78466 | 15683 ft | 352 kts | 42° |
| 2026-04-26 18:13 | 54.02207 | 10.81527 | 16292 ft | 356 kts | 42° |
| 2026-04-26 18:13 | 54.03903 | 10.84620 | 16899 ft | 360 kts | 43° |
| 2026-04-26 18:13 | 54.05620 | 10.87760 | 17506 ft | 363 kts | 43° |
| 2026-04-26 18:13 | 54.06762 | 10.89852 | 17906 ft | 366 kts | 43° |
| 2026-04-26 18:14 | 54.09092 | 10.94127 | 18700 ft | 371 kts | 43° |
| 2026-04-26 18:14 | 54.10860 | 10.97370 | 19240 ft | 375 kts | 42° |
| 2026-04-26 18:14 | 54.12639 | 11.00636 | 19799 ft | 378 kts | 43° |
| 2026-04-26 18:14 | 54.14431 | 11.03945 | 20368 ft | 381 kts | 43° |
| 2026-04-26 18:15 | 54.16233 | 11.07288 | 20928 ft | 384 kts | 43° |
| 2026-04-26 18:15 | 54.18047 | 11.10671 | 21468 ft | 388 kts | 43° |
| 2026-04-26 18:15 | 54.19872 | 11.14072 | 21997 ft | 391 kts | 43° |
| 2026-04-26 18:15 | 54.21716 | 11.17507 | 22523 ft | 394 kts | 42° |
| 2026-04-26 18:16 | 54.23551 | 11.20928 | 23083 ft | 397 kts | 42° |
| 2026-04-26 18:16 | 54.27307 | 11.27953 | 24138 ft | 403 kts | 42° |
| 2026-04-26 18:16 | 54.29203 | 11.31512 | 24582 ft | 406 kts | 42° |
| 2026-04-26 18:17 | 54.31104 | 11.35092 | 25016 ft | 408 kts | 42° |
| 2026-04-26 18:17 | 54.33080 | 11.38590 | 25436 ft | 406 kts | 33° |
| 2026-04-26 18:17 | 54.35400 | 11.41252 | 25843 ft | 402 kts | 25° |
| 2026-04-26 18:17 | 54.37812 | 11.43703 | 26262 ft | 404 kts | 25° |
| 2026-04-26 18:18 | 54.40245 | 11.46158 | 26673 ft | 406 kts | 25° |
| 2026-04-26 18:18 | 54.42689 | 11.48627 | 27077 ft | 409 kts | 25° |
| 2026-04-26 18:18 | 54.45146 | 11.51109 | 27470 ft | 411 kts | 25° |
| 2026-04-26 18:18 | 54.47620 | 11.53610 | 27886 ft | 413 kts | 25° |
| 2026-04-26 18:19 | 54.50106 | 11.56128 | 28282 ft | 416 kts | 25° |
| 2026-04-26 18:19 | 54.52573 | 11.58792 | 28645 ft | 422 kts | 30° |
| 2026-04-26 18:19 | 54.54944 | 11.61802 | 29015 ft | 424 kts | 30° |
| 2026-04-26 18:19 | 54.57379 | 11.64685 | 29385 ft | 425 kts | 28° |
| 2026-04-26 18:20 | 54.59858 | 11.67480 | 29746 ft | 427 kts | 27° |
| 2026-04-26 18:20 | 54.62364 | 11.70256 | 30106 ft | 430 kts | 27° |
| 2026-04-26 18:20 | 54.64883 | 11.73059 | 30447 ft | 432 kts | 27° |
| 2026-04-26 18:20 | 54.66557 | 11.74941 | 30650 ft | 434 kts | 27° |
| 2026-04-26 18:21 | 54.69939 | 11.78811 | 31076 ft | 438 kts | 28° |
| 2026-04-26 18:21 | 54.72474 | 11.81756 | 31373 ft | 440 kts | 28° |
| 2026-04-26 18:21 | 54.75014 | 11.84728 | 31738 ft | 441 kts | 28° |
| 2026-04-26 18:21 | 54.77544 | 11.87703 | 32171 ft | 440 kts | 28° |
| 2026-04-26 18:22 | 54.80075 | 11.90681 | 32602 ft | 439 kts | 28° |
| 2026-04-26 18:22 | 54.82601 | 11.93648 | 33023 ft | 439 kts | 28° |
| 2026-04-26 18:22 | 54.85128 | 11.96610 | 33445 ft | 438 kts | 28° |
| 2026-04-26 18:22 | 54.87653 | 11.99568 | 33865 ft | 438 kts | 28° |
| 2026-04-26 18:23 | 54.90177 | 12.02525 | 34284 ft | 437 kts | 28° |
| 2026-04-26 18:23 | 54.92695 | 12.05483 | 34664 ft | 437 kts | 28° |
| 2026-04-26 18:23 | 54.95205 | 12.08441 | 35054 ft | 435 kts | 28° |
| 2026-04-26 18:23 | 54.97706 | 12.11395 | 35420 ft | 434 kts | 28° |
| 2026-04-26 18:24 | 55.00202 | 12.14342 | 35770 ft | 433 kts | 28° |
| 2026-04-26 18:24 | 55.02692 | 12.17283 | 36091 ft | 432 kts | 28° |
| 2026-04-26 18:24 | 55.05178 | 12.20223 | 36418 ft | 431 kts | 28° |
| 2026-04-26 18:24 | 55.07660 | 12.23162 | 36726 ft | 431 kts | 28° |
| 2026-04-26 18:25 | 55.10135 | 12.26100 | 37032 ft | 430 kts | 28° |
| 2026-04-26 18:25 | 55.12609 | 12.29048 | 37246 ft | 430 kts | 28° |
| 2026-04-26 18:25 | 55.17549 | 12.34950 | 37291 ft | 430 kts | 29° |
| 2026-04-26 18:26 | 55.22481 | 12.40859 | 37285 ft | 430 kts | 29° |
| 2026-04-26 18:26 | 55.27413 | 12.46771 | 37289 ft | 429 kts | 29° |
| 2026-04-26 18:27 | 55.32340 | 12.52702 | 37285 ft | 429 kts | 29° |
| 2026-04-26 18:27 | 55.37263 | 12.58646 | 37290 ft | 429 kts | 29° |
| 2026-04-26 18:28 | 55.42151 | 12.64581 | 37290 ft | 430 kts | 29° |
| 2026-04-26 18:28 | 55.47073 | 12.70571 | 37296 ft | 430 kts | 29° |
| 2026-04-26 18:29 | 55.51998 | 12.76572 | 37299 ft | 431 kts | 29° |
| 2026-04-26 18:29 | 55.56928 | 12.82592 | 37292 ft | 431 kts | 29° |
| 2026-04-26 18:30 | 55.61860 | 12.88634 | 37294 ft | 431 kts | 29° |
| 2026-04-26 18:30 | 55.66769 | 12.94693 | 37293 ft | 429 kts | 29° |
| 2026-04-26 18:31 | 55.71647 | 13.00773 | 37308 ft | 430 kts | 30° |
| 2026-04-26 18:31 | 55.76388 | 13.07293 | 37309 ft | 432 kts | 33° |
| 2026-04-26 18:32 | 55.81038 | 13.14067 | 37304 ft | 432 kts | 33° |
| 2026-04-26 18:32 | 55.85706 | 13.20802 | 37299 ft | 431 kts | 33° |
| 2026-04-26 18:33 | 55.90396 | 13.27455 | 37289 ft | 430 kts | 32° |
| 2026-04-26 18:33 | 55.95082 | 13.34095 | 37290 ft | 431 kts | 32° |
| 2026-04-26 18:34 | 55.99767 | 13.40778 | 37283 ft | 431 kts | 33° |
| 2026-04-26 18:34 | 56.04441 | 13.47485 | 37293 ft | 431 kts | 33° |
| 2026-04-26 18:35 | 56.09120 | 13.54215 | 37295 ft | 432 kts | 33° |
| 2026-04-26 18:35 | 56.13797 | 13.60970 | 37306 ft | 432 kts | 33° |
| 2026-04-26 18:36 | 56.18476 | 13.67741 | 37298 ft | 432 kts | 33° |
| 2026-04-26 18:36 | 56.23156 | 13.74532 | 37294 ft | 432 kts | 33° |
| 2026-04-26 18:37 | 56.27830 | 13.81344 | 37297 ft | 433 kts | 33° |
| 2026-04-26 18:37 | 56.32510 | 13.88178 | 37287 ft | 433 kts | 33° |
| 2026-04-26 18:38 | 56.37164 | 13.95020 | 37283 ft | 430 kts | 33° |
| 2026-04-26 18:38 | 56.41794 | 14.01847 | 37273 ft | 430 kts | 33° |
| 2026-04-26 18:39 | 56.46408 | 14.08657 | 37271 ft | 431 kts | 33° |
| 2026-04-26 18:39 | 56.51022 | 14.15476 | 37267 ft | 431 kts | 33° |
| 2026-04-26 18:40 | 56.55687 | 14.22408 | 37264 ft | 431 kts | 33° |
| 2026-04-26 18:40 | 56.58020 | 14.25880 | 36433 ft | 440 kts | 33° |
| 2026-04-26 18:40 | 56.60400 | 14.29425 | 35671 ft | 443 kts | 33° |
| 2026-04-26 18:41 | 56.62751 | 14.32951 | 35406 ft | 434 kts | 33° |
| 2026-04-26 18:41 | 56.65028 | 14.36377 | 35212 ft | 428 kts | 33° |
| 2026-04-26 18:41 | 56.69591 | 14.43231 | 35231 ft | 425 kts | 32° |
| 2026-04-26 18:42 | 56.74152 | 14.50073 | 35219 ft | 425 kts | 32° |
| 2026-04-26 18:42 | 56.78705 | 14.56947 | 35208 ft | 425 kts | 33° |
| 2026-04-26 18:43 | 56.83248 | 14.63845 | 35192 ft | 424 kts | 33° |
| 2026-04-26 18:43 | 56.87781 | 14.70741 | 35194 ft | 424 kts | 33° |
| 2026-04-26 18:44 | 56.92315 | 14.77647 | 35186 ft | 424 kts | 33° |
| 2026-04-26 18:44 | 56.96842 | 14.84581 | 35225 ft | 424 kts | 33° |
| 2026-04-26 18:45 | 57.01369 | 14.91529 | 35244 ft | 424 kts | 33° |
| 2026-04-26 18:45 | 57.05888 | 14.98486 | 35271 ft | 424 kts | 33° |
| 2026-04-26 18:46 | 57.10402 | 15.05464 | 35256 ft | 424 kts | 33° |
| 2026-04-26 18:46 | 57.14901 | 15.12463 | 35247 ft | 423 kts | 33° |
| 2026-04-26 18:47 | 57.19406 | 15.19468 | 35241 ft | 423 kts | 33° |
| 2026-04-26 18:47 | 57.23908 | 15.26474 | 35236 ft | 423 kts | 33° |
| 2026-04-26 18:48 | 57.28396 | 15.33507 | 35260 ft | 423 kts | 33° |
| 2026-04-26 18:48 | 57.32877 | 15.40552 | 35246 ft | 422 kts | 33° |
| 2026-04-26 18:49 | 57.37345 | 15.47610 | 35236 ft | 422 kts | 33° |
| 2026-04-26 18:49 | 57.41808 | 15.54670 | 35237 ft | 422 kts | 33° |
| 2026-04-26 18:50 | 57.46276 | 15.61745 | 35225 ft | 422 kts | 33° |
| 2026-04-26 18:50 | 57.50731 | 15.68844 | 35255 ft | 422 kts | 33° |
| 2026-04-26 18:51 | 57.55175 | 15.75942 | 35233 ft | 421 kts | 33° |
| 2026-04-26 18:51 | 57.59606 | 15.83051 | 35227 ft | 420 kts | 33° |
| 2026-04-26 18:52 | 57.63277 | 15.88963 | 35229 ft | 419 kts | 33° |
| 2026-04-26 18:52 | 57.68416 | 15.97242 | 35218 ft | 417 kts | 33° |
| 2026-04-26 18:53 | 57.72803 | 16.04332 | 35212 ft | 417 kts | 33° |
| 2026-04-26 18:53 | 57.77187 | 16.11450 | 35208 ft | 417 kts | 33° |
| 2026-04-26 18:54 | 57.81563 | 16.18581 | 35210 ft | 417 kts | 33° |
| 2026-04-26 18:54 | 57.85938 | 16.25734 | 35201 ft | 417 kts | 33° |
| 2026-04-26 18:55 | 57.90305 | 16.32918 | 35196 ft | 417 kts | 33° |
| 2026-04-26 18:55 | 57.93941 | 16.38904 | 35173 ft | 419 kts | 33° |
| 2026-04-26 18:56 | 57.98329 | 16.46136 | 34823 ft | 421 kts | 33° |
| 2026-04-26 18:56 | 58.00538 | 16.49786 | 34110 ft | 423 kts | 32° |
| 2026-04-26 18:56 | 58.02739 | 16.53442 | 33521 ft | 420 kts | 33° |
| 2026-04-26 18:57 | 58.04916 | 16.57076 | 32978 ft | 416 kts | 33° |
| 2026-04-26 18:57 | 58.06345 | 16.59463 | 32634 ft | 413 kts | 32° |
| 2026-04-26 18:57 | 58.09207 | 16.64247 | 31954 ft | 407 kts | 32° |
| 2026-04-26 18:57 | 58.11304 | 16.67763 | 31118 ft | 399 kts | 32° |
| 2026-04-26 18:58 | 58.13365 | 16.71219 | 30262 ft | 393 kts | 32° |
| 2026-04-26 18:58 | 58.15376 | 16.74597 | 29771 ft | 377 kts | 32° |
| 2026-04-26 18:58 | 58.17289 | 16.77828 | 29405 ft | 360 kts | 32° |
| 2026-04-26 18:58 | 58.19121 | 16.80924 | 29153 ft | 348 kts | 31° |
| 2026-04-26 18:59 | 58.22828 | 16.87092 | 29164 ft | 358 kts | 31° |
| 2026-04-26 18:59 | 58.26565 | 16.93364 | 29177 ft | 358 kts | 31° |
| 2026-04-26 19:00 | 58.30281 | 16.99654 | 29158 ft | 357 kts | 31° |
| 2026-04-26 19:00 | 58.33998 | 17.05955 | 27973 ft | 372 kts | 31° |
| 2026-04-26 19:01 | 58.36021 | 17.09349 | 26458 ft | 393 kts | 32° |
| 2026-04-26 19:01 | 58.38096 | 17.12838 | 24858 ft | 414 kts | 33° |
| 2026-04-26 19:01 | 58.40316 | 17.16608 | 23664 ft | 422 kts | 33° |
| 2026-04-26 19:01 | 58.42418 | 17.20268 | 23260 ft | 395 kts | 34° |
| 2026-04-26 19:02 | 58.44343 | 17.23668 | 23023 ft | 370 kts | 33° |
| 2026-04-26 19:02 | 58.46181 | 17.26896 | 22747 ft | 348 kts | 33° |
| 2026-04-26 19:02 | 58.47922 | 17.29924 | 22475 ft | 330 kts | 32° |
| 2026-04-26 19:02 | 58.49067 | 17.31894 | 22304 ft | 327 kts | 32° |
| 2026-04-26 19:03 | 58.51301 | 17.35701 | 21942 ft | 322 kts | 31° |
| 2026-04-26 19:03 | 58.52969 | 17.38541 | 21677 ft | 320 kts | 32° |
| 2026-04-26 19:03 | 58.54616 | 17.41364 | 21418 ft | 315 kts | 32° |
| 2026-04-26 19:03 | 58.56235 | 17.44155 | 21069 ft | 312 kts | 32° |
| 2026-04-26 19:04 | 58.57838 | 17.46926 | 20700 ft | 309 kts | 32° |
| 2026-04-26 19:04 | 58.59427 | 17.49678 | 20334 ft | 307 kts | 32° |
| 2026-04-26 19:04 | 58.61004 | 17.52419 | 19969 ft | 305 kts | 32° |
| 2026-04-26 19:04 | 58.62570 | 17.55146 | 19606 ft | 303 kts | 32° |
| 2026-04-26 19:05 | 58.65675 | 17.60554 | 18873 ft | 300 kts | 32° |
| 2026-04-26 19:05 | 58.67217 | 17.63239 | 18514 ft | 299 kts | 32° |
| 2026-04-26 19:05 | 58.68741 | 17.65895 | 18122 ft | 298 kts | 32° |
| 2026-04-26 19:06 | 58.70267 | 17.68561 | 17769 ft | 295 kts | 33° |
| 2026-04-26 19:06 | 58.71779 | 17.71208 | 17408 ft | 292 kts | 33° |
| 2026-04-26 19:06 | 58.73268 | 17.73825 | 17047 ft | 289 kts | 33° |
| 2026-04-26 19:06 | 58.74745 | 17.76426 | 16697 ft | 287 kts | 33° |
| 2026-04-26 19:07 | 58.76209 | 17.79010 | 16363 ft | 284 kts | 33° |
| 2026-04-26 19:07 | 58.77660 | 17.81574 | 16025 ft | 282 kts | 33° |
| 2026-04-26 19:07 | 58.79104 | 17.84124 | 15690 ft | 280 kts | 33° |
| 2026-04-26 19:07 | 58.80536 | 17.86649 | 15356 ft | 278 kts | 33° |
| 2026-04-26 19:08 | 58.82048 | 17.88848 | 15036 ft | 268 kts | 22° |
| 2026-04-26 19:08 | 58.83693 | 17.90455 | 14842 ft | 268 kts | 18° |
| 2026-04-26 19:08 | 58.85389 | 17.92025 | 14627 ft | 271 kts | 19° |
| 2026-04-26 19:08 | 58.87087 | 17.93619 | 14405 ft | 271 kts | 19° |
| 2026-04-26 19:09 | 58.88781 | 17.95220 | 14177 ft | 270 kts | 19° |
| 2026-04-26 19:09 | 58.90466 | 17.96818 | 13975 ft | 270 kts | 19° |
| 2026-04-26 19:09 | 58.92150 | 17.98412 | 13761 ft | 269 kts | 19° |
| 2026-04-26 19:09 | 58.93823 | 17.99999 | 13503 ft | 267 kts | 19° |
| 2026-04-26 19:10 | 58.95490 | 18.01583 | 13282 ft | 267 kts | 19° |
| 2026-04-26 19:10 | 58.97178 | 18.03060 | 13060 ft | 263 kts | 12° |
| 2026-04-26 19:10 | 58.98937 | 18.03963 | 12848 ft | 261 kts | 8° |
| 2026-04-26 19:10 | 59.00713 | 18.04754 | 12406 ft | 264 kts | 8° |
| 2026-04-26 19:11 | 59.02517 | 18.05531 | 11870 ft | 268 kts | 8° |
| 2026-04-26 19:11 | 59.04350 | 18.06309 | 11342 ft | 271 kts | 8° |
| 2026-04-26 19:11 | 59.06218 | 18.06646 | 10822 ft | 269 kts | 352° |
| 2026-04-26 19:11 | 59.08045 | 18.05916 | 10316 ft | 270 kts | 340° |
| 2026-04-26 19:12 | 59.09825 | 18.04674 | 9777 ft | 273 kts | 338° |
| 2026-04-26 19:12 | 59.11609 | 18.03368 | 9230 ft | 275 kts | 338° |
| 2026-04-26 19:12 | 59.13409 | 18.02033 | 8672 ft | 278 kts | 338° |
| 2026-04-26 19:12 | 59.15217 | 18.00675 | 8126 ft | 279 kts | 338° |
| 2026-04-26 19:13 | 59.17038 | 17.99290 | 7555 ft | 282 kts | 338° |
| 2026-04-26 19:13 | 59.18865 | 17.97883 | 7032 ft | 283 kts | 338° |
| 2026-04-26 19:13 | 59.20695 | 17.96460 | 6583 ft | 282 kts | 338° |
| 2026-04-26 19:13 | 59.22500 | 17.95048 | 6224 ft | 277 kts | 338° |
| 2026-04-26 19:14 | 59.24282 | 17.93653 | 5838 ft | 274 kts | 338° |
| 2026-04-26 19:14 | 59.26045 | 17.92270 | 5465 ft | 271 kts | 338° |
| 2026-04-26 19:14 | 59.27783 | 17.90905 | 5098 ft | 268 kts | 338° |
| 2026-04-26 19:14 | 59.28947 | 17.89990 | 4844 ft | 266 kts | 338° |
| 2026-04-26 19:15 | 59.31201 | 17.88210 | 4348 ft | 262 kts | 338° |
| 2026-04-26 19:15 | 59.32884 | 17.86883 | 4033 ft | 257 kts | 338° |
| 2026-04-26 19:15 | 59.34517 | 17.85693 | 4003 ft | 243 kts | 346° |
| 2026-04-26 19:15 | 59.36180 | 17.85565 | 4010 ft | 241 kts | 6° |
| 2026-04-26 19:16 | 59.37830 | 17.86147 | 4011 ft | 241 kts | 8° |
| 2026-04-26 19:16 | 59.39487 | 17.86748 | 4010 ft | 241 kts | 8° |
| 2026-04-26 19:16 | 59.41138 | 17.87339 | 4010 ft | 241 kts | 7° |
| 2026-04-26 19:16 | 59.42793 | 17.87931 | 4009 ft | 241 kts | 7° |
| 2026-04-26 19:17 | 59.44447 | 17.88522 | 3859 ft | 241 kts | 7° |
| 2026-04-26 19:17 | 59.46083 | 17.89109 | 3562 ft | 234 kts | 7° |
| 2026-04-26 19:17 | 59.47642 | 17.89670 | 3255 ft | 222 kts | 7° |
| 2026-04-26 19:17 | 59.49121 | 17.90202 | 2951 ft | 210 kts | 7° |
| 2026-04-26 19:18 | 59.50524 | 17.90706 | 2660 ft | 199 kts | 7° |
| 2026-04-26 19:18 | 59.51857 | 17.91185 | 2389 ft | 191 kts | 7° |
| 2026-04-26 19:18 | 59.53143 | 17.91647 | 2140 ft | 186 kts | 7° |
| 2026-04-26 19:18 | 59.54478 | 17.92123 | 1868 ft | 199 kts | 7° |
| 2026-04-26 19:19 | 59.55805 | 17.92605 | 1585 ft | 188 kts | 7° |
| 2026-04-26 19:19 | 59.57038 | 17.93052 | 1351 ft | 171 kts | 7° |
| 2026-04-26 19:19 | 59.58147 | 17.93454 | 1116 ft | 155 kts | 7° |
| 2026-04-26 19:19 | 59.59147 | 17.93816 | 905 ft | 140 kts | 7° |
| 2026-04-26 19:20 | 59.60084 | 17.94152 | 698 ft | 134 kts | 7° |
| 2026-04-26 19:20 | 59.60686 | 17.94369 | 582 ft | 132 kts | 7° |
| 2026-04-26 19:20 | 59.61866 | 17.94792 | 368 ft | 130 kts | 7° |
| 2026-04-26 19:20 | 59.62763 | 17.95120 | 168 ft | 129 kts | 8° |
| 2026-04-26 19:21 | 59.63559 | 17.95398 | 145 ft | 100 kts | 10° |
| 2026-04-26 19:21 | 59.64068 | 17.95590 | 145 ft | 50 kts | 9° |
| 2026-04-26 19:21 | 59.64274 | 17.95662 | 145 ft | 23 kts | 10° |
| 2026-04-26 19:21 | 59.64443 | 17.95699 | 144 ft | 27 kts | 357° |
| 2026-04-26 19:22 | 59.64637 | 17.95605 | 139 ft | 31 kts | 338° |
| 2026-04-26 19:22 | 59.64697 | 17.95550 | 138 ft | 0 kts | 334° |
| 2026-04-26 19:25 | 59.64701 | 17.95547 | 138 ft | 4 kts | 338° |
| 2026-04-26 19:26 | 59.64779 | 17.95493 | 138 ft | 15 kts | 341° |
| 2026-04-26 19:26 | 59.64896 | 17.95500 | 138 ft | 18 kts | 10° |
| 2026-04-26 19:26 | 59.65032 | 17.95519 | 138 ft | 21 kts | 350° |
| 2026-04-26 19:26 | 59.65181 | 17.95440 | 138 ft | 24 kts | 345° |
| 2026-04-26 19:27 | 59.65343 | 17.95359 | 138 ft | 25 kts | 345° |
| 2026-04-26 19:27 | 59.65517 | 17.95268 | 138 ft | 27 kts | 345° |
| 2026-04-26 19:27 | 59.65692 | 17.95171 | 138 ft | 16 kts | 344° |
| 2026-04-26 19:27 | 59.65716 | 17.95157 | 138 ft | 1 kts | 343° |
| 2026-04-26 19:28 | 59.65729 | 17.95147 | 138 ft | 0 kts | 337° |
| 2026-04-26 19:28 | 59.65752 | 17.95087 | 138 ft | 15 kts | 290° |
| 2026-04-26 19:28 | 59.65728 | 17.94848 | 138 ft | 20 kts | 256° |
| 2026-04-26 19:28 | 59.65691 | 17.94556 | 138 ft | 24 kts | 256° |
| 2026-04-26 19:29 | 59.65647 | 17.94221 | 138 ft | 26 kts | 256° |
| 2026-04-26 19:29 | 59.65605 | 17.93872 | 138 ft | 20 kts | 257° |
| 2026-04-26 19:29 | 59.65568 | 17.93592 | 138 ft | 23 kts | 254° |
| 2026-04-26 19:29 | 59.65527 | 17.93274 | 138 ft | 24 kts | 258° |
| 2026-04-26 19:30 | 59.65451 | 17.93217 | 138 ft | 14 kts | 144° |
| 2026-04-26 19:30 | 59.65408 | 17.93193 | 138 ft | 7 kts | 214° |
| 2026-04-26 19:30 | 59.65381 | 17.93142 | 137 ft | 0 kts | 224° |
| 2026-04-26 19:31 | 59.65376 | 17.93132 | 138 ft | 0 kts | 224° |
| 2026-04-26 19:31 | 59.65375 | 17.93132 | 138 ft | 0 kts | 224° |
| 2026-04-26 19:32 | 59.65380 | 17.93141 | 138 ft | 0 kts | 224° |
| 2026-04-26 19:32 | 59.65380 | 17.93140 | 138 ft | 0 kts | 224° |